sensor_id;sensor_type;location;lat;lon;timestamp;pressure;altitude;pressure_sealevel;temperature;humidity
21902;BME280;11115;46.038;14.612;2023-11-19T00:00:22;99095.59;;;1.39;100.00
21902;BME280;11115;46.038;14.612;2023-11-19T00:02:50;99097.97;;;1.47;100.00
21902;BME280;11115;46.038;14.612;2023-11-19T00:05:18;99064.16;;;1.25;100.00
21902;BME280;11115;46.038;14.612;2023-11-19T00:07:46;99108.28;;;1.45;100.00
21902;BME280;11115;46.038;14.612;2023-11-19T00:10:16;99108.75;;;1.54;100.00
21902;BME280;11115;46.038;14.612;2023-11-19T00:12:49;99108.69;;;1.84;100.00
21902;BME280;11115;46.038;14.612;2023-11-19T00:15:18;99097.28;;;1.99;100.00
21902;BME280;11115;46.038;14.612;2023-11-19T00:17:47;99087.91;;;2.06;100.00
21902;BME280;11115;46.038;14.612;2023-11-19T00:20:18;99079.16;;;1.81;100.00
21902;BME280;11115;46.038;14.612;2023-11-19T00:22:46;99076.31;;;1.76;100.00
21902;BME280;11115;46.038;14.612;2023-11-19T00:25:18;99035.97;;;1.66;100.00
21902;BME280;11115;46.038;14.612;2023-11-19T00:27:49;99031.00;;;1.63;100.00
21902;BME280;11115;46.038;14.612;2023-11-19T00:30:18;99051.38;;;1.84;100.00
21902;BME280;11115;46.038;14.612;2023-11-19T00:32:46;99060.06;;;1.58;100.00
21902;BME280;11115;46.038;14.612;2023-11-19T00:35:14;99056.38;;;1.64;100.00
21902;BME280;11115;46.038;14.612;2023-11-19T00:37:42;99055.75;;;1.85;100.00
21902;BME280;11115;46.038;14.612;2023-11-19T00:40:12;99051.72;;;1.99;100.00
21902;BME280;11115;46.038;14.612;2023-11-19T00:42:43;99058.97;;;1.94;100.00
21902;BME280;11115;46.038;14.612;2023-11-19T00:45:11;99034.78;;;1.86;100.00
21902;BME280;11115;46.038;14.612;2023-11-19T00:47:40;99058.34;;;2.03;100.00
21902;BME280;11115;46.038;14.612;2023-11-19T00:50:09;99063.69;;;2.10;100.00
21902;BME280;11115;46.038;14.612;2023-11-19T00:52:38;99065.13;;;1.89;100.00
21902;BME280;11115;46.038;14.612;2023-11-19T00:55:06;99061.13;;;1.57;100.00
21902;BME280;11115;46.038;14.612;2023-11-19T00:57:35;99064.66;;;1.69;100.00
21902;BME280;11115;46.038;14.612;2023-11-19T01:00:05;99071.66;;;1.65;100.00
21902;BME280;11115;46.038;14.612;2023-11-19T01:02:41;99058.38;;;1.68;100.00
21902;BME280;11115;46.038;14.612;2023-11-19T01:05:10;99055.91;;;1.55;100.00
21902;BME280;11115;46.038;14.612;2023-11-19T01:07:40;99065.97;;;1.66;100.00
21902;BME280;11115;46.038;14.612;2023-11-19T01:10:09;99050.56;;;1.83;100.00
21902;BME280;11115;46.038;14.612;2023-11-19T01:12:38;99035.94;;;1.90;100.00
21902;BME280;11115;46.038;14.612;2023-11-19T01:15:06;99028.13;;;1.70;100.00
21902;BME280;11115;46.038;14.612;2023-11-19T01:17:36;99012.03;;;1.45;100.00
21902;BME280;11115;46.038;14.612;2023-11-19T01:20:05;99033.63;;;1.58;100.00
21902;BME280;11115;46.038;14.612;2023-11-19T01:22:34;99000.66;;;1.60;100.00
21902;BME280;11115;46.038;14.612;2023-11-19T01:25:02;99016.97;;;1.83;100.00
21902;BME280;11115;46.038;14.612;2023-11-19T01:27:32;98964.84;;;1.33;100.00
21902;BME280;11115;46.038;14.612;2023-11-19T01:30:02;98996.03;;;1.60;100.00
21902;BME280;11115;46.038;14.612;2023-11-19T01:32:31;99001.19;;;1.73;100.00
21902;BME280;11115;46.038;14.612;2023-11-19T01:34:59;98994.91;;;1.73;100.00
21902;BME280;11115;46.038;14.612;2023-11-19T01:37:27;98996.81;;;1.72;100.00
21902;BME280;11115;46.038;14.612;2023-11-19T01:39:55;98999.78;;;1.82;100.00
21902;BME280;11115;46.038;14.612;2023-11-19T01:42:25;98978.94;;;1.65;100.00
21902;BME280;11115;46.038;14.612;2023-11-19T01:45:01;98992.34;;;1.66;100.00
21902;BME280;11115;46.038;14.612;2023-11-19T01:47:30;98980.16;;;1.57;100.00
21902;BME280;11115;46.038;14.612;2023-11-19T01:49:59;98973.84;;;1.57;100.00
21902;BME280;11115;46.038;14.612;2023-11-19T01:52:27;98972.19;;;1.56;100.00
21902;BME280;11115;46.038;14.612;2023-11-19T01:54:55;98963.28;;;1.60;100.00
21902;BME280;11115;46.038;14.612;2023-11-19T01:57:23;98970.78;;;1.41;100.00
21902;BME280;11115;46.038;14.612;2023-11-19T01:59:52;98960.47;;;1.32;100.00
21902;BME280;11115;46.038;14.612;2023-11-19T02:02:20;98948.47;;;1.33;100.00
21902;BME280;11115;46.038;14.612;2023-11-19T02:04:50;98959.28;;;1.16;100.00
21902;BME280;11115;46.038;14.612;2023-11-19T02:07:19;98961.91;;;1.23;100.00
21902;BME280;11115;46.038;14.612;2023-11-19T02:09:47;98952.03;;;1.10;100.00
21902;BME280;11115;46.038;14.612;2023-11-19T02:12:16;98921.25;;;1.09;100.00
21902;BME280;11115;46.038;14.612;2023-11-19T02:14:44;98943.66;;;1.23;100.00
21902;BME280;11115;46.038;14.612;2023-11-19T02:17:26;98971.00;;;1.28;100.00
21902;BME280;11115;46.038;14.612;2023-11-19T02:19:54;98963.44;;;1.30;100.00
21902;BME280;11115;46.038;14.612;2023-11-19T02:22:22;98975.63;;;1.28;100.00
21902;BME280;11115;46.038;14.612;2023-11-19T02:24:54;98971.13;;;1.45;100.00
21902;BME280;11115;46.038;14.612;2023-11-19T02:27:49;98953.84;;;1.39;100.00
21902;BME280;11115;46.038;14.612;2023-11-19T02:30:20;98944.09;;;1.43;100.00
21902;BME280;11115;46.038;14.612;2023-11-19T02:32:54;98951.47;;;1.08;100.00
21902;BME280;11115;46.038;14.612;2023-11-19T02:35:27;98935.59;;;1.05;100.00
21902;BME280;11115;46.038;14.612;2023-11-19T02:38:00;98935.22;;;1.25;100.00
21902;BME280;11115;46.038;14.612;2023-11-19T02:40:30;98929.31;;;1.28;100.00
21902;BME280;11115;46.038;14.612;2023-11-19T02:42:58;98905.34;;;1.30;100.00
21902;BME280;11115;46.038;14.612;2023-11-19T02:45:27;98917.81;;;1.02;100.00
21902;BME280;11115;46.038;14.612;2023-11-19T02:47:58;98907.47;;;0.69;100.00
21902;BME280;11115;46.038;14.612;2023-11-19T02:50:28;98899.81;;;0.89;100.00
21902;BME280;11115;46.038;14.612;2023-11-19T02:52:57;98888.66;;;1.14;100.00
21902;BME280;11115;46.038;14.612;2023-11-19T02:55:25;98872.53;;;1.36;100.00
21902;BME280;11115;46.038;14.612;2023-11-19T02:57:57;98877.41;;;0.87;100.00
21902;BME280;11115;46.038;14.612;2023-11-19T03:00:26;98879.44;;;0.80;100.00
21902;BME280;11115;46.038;14.612;2023-11-19T03:03:02;98863.34;;;0.79;100.00
21902;BME280;11115;46.038;14.612;2023-11-19T03:05:45;98803.88;;;0.52;100.00
21902;BME280;11115;46.038;14.612;2023-11-19T03:08:15;98840.47;;;0.45;100.00
21902;BME280;11115;46.038;14.612;2023-11-19T03:10:46;98883.19;;;0.56;100.00
21902;BME280;11115;46.038;14.612;2023-11-19T03:13:15;98872.91;;;0.70;100.00
21902;BME280;11115;46.038;14.612;2023-11-19T03:15:44;98851.00;;;0.88;100.00
21902;BME280;11115;46.038;14.612;2023-11-19T03:18:12;98835.03;;;0.68;100.00
21902;BME280;11115;46.038;14.612;2023-11-19T03:20:41;98824.00;;;0.86;100.00
21902;BME280;11115;46.038;14.612;2023-11-19T03:23:09;98815.59;;;0.76;100.00
21902;BME280;11115;46.038;14.612;2023-11-19T03:25:37;98842.13;;;1.04;100.00
21902;BME280;11115;46.038;14.612;2023-11-19T03:28:05;98856.81;;;0.91;100.00
21902;BME280;11115;46.038;14.612;2023-11-19T03:30:33;98855.03;;;0.97;100.00
21902;BME280;11115;46.038;14.612;2023-11-19T03:33:01;98861.19;;;1.16;100.00
21902;BME280;11115;46.038;14.612;2023-11-19T03:35:29;98855.88;;;0.63;100.00
21902;BME280;11115;46.038;14.612;2023-11-19T03:37:59;98840.19;;;0.23;100.00
21902;BME280;11115;46.038;14.612;2023-11-19T03:40:28;98830.81;;;0.19;100.00
21902;BME280;11115;46.038;14.612;2023-11-19T03:42:56;98798.03;;;0.14;100.00
21902;BME280;11115;46.038;14.612;2023-11-19T03:45:25;98804.06;;;0.16;100.00
21902;BME280;11115;46.038;14.612;2023-11-19T03:47:53;98800.88;;;0.19;100.00
21902;BME280;11115;46.038;14.612;2023-11-19T03:50:21;98801.19;;;0.41;100.00
21902;BME280;11115;46.038;14.612;2023-11-19T03:52:50;98803.16;;;0.57;100.00
21902;BME280;11115;46.038;14.612;2023-11-19T03:55:19;98786.84;;;0.34;100.00
21902;BME280;11115;46.038;14.612;2023-11-19T03:57:47;98819.75;;;0.55;100.00
21902;BME280;11115;46.038;14.612;2023-11-19T04:00:15;98800.53;;;0.15;100.00
21902;BME280;11115;46.038;14.612;2023-11-19T04:02:43;98816.44;;;0.42;100.00
21902;BME280;11115;46.038;14.612;2023-11-19T04:05:13;98789.44;;;0.28;100.00
21902;BME280;11115;46.038;14.612;2023-11-19T04:07:41;98810.53;;;0.80;100.00
21902;BME280;11115;46.038;14.612;2023-11-19T04:10:09;98791.69;;;0.67;100.00
21902;BME280;11115;46.038;14.612;2023-11-19T04:12:37;98814.44;;;0.60;100.00
21902;BME280;11115;46.038;14.612;2023-11-19T04:15:06;98811.94;;;0.59;100.00
21902;BME280;11115;46.038;14.612;2023-11-19T04:17:35;98809.22;;;0.71;100.00
21902;BME280;11115;46.038;14.612;2023-11-19T04:20:03;98809.31;;;0.87;100.00
21902;BME280;11115;46.038;14.612;2023-11-19T04:22:32;98813.56;;;0.95;100.00
21902;BME280;11115;46.038;14.612;2023-11-19T04:25:01;98819.72;;;1.02;100.00
21902;BME280;11115;46.038;14.612;2023-11-19T04:27:30;98806.00;;;0.74;100.00
21902;BME280;11115;46.038;14.612;2023-11-19T04:29:58;98804.31;;;0.96;100.00
21902;BME280;11115;46.038;14.612;2023-11-19T04:32:28;98805.28;;;0.90;100.00
21902;BME280;11115;46.038;14.612;2023-11-19T04:34:56;98788.06;;;1.13;100.00
21902;BME280;11115;46.038;14.612;2023-11-19T04:37:24;98799.59;;;0.91;100.00
21902;BME280;11115;46.038;14.612;2023-11-19T04:39:52;98792.88;;;0.82;100.00
21902;BME280;11115;46.038;14.612;2023-11-19T04:42:23;98807.03;;;0.96;100.00
21902;BME280;11115;46.038;14.612;2023-11-19T04:44:52;98819.16;;;1.00;100.00
21902;BME280;11115;46.038;14.612;2023-11-19T04:47:20;98814.31;;;0.79;100.00
21902;BME280;11115;46.038;14.612;2023-11-19T04:49:48;98827.56;;;0.75;100.00
21902;BME280;11115;46.038;14.612;2023-11-19T04:52:16;98801.59;;;0.96;100.00
21902;BME280;11115;46.038;14.612;2023-11-19T04:54:44;98818.03;;;1.25;100.00
21902;BME280;11115;46.038;14.612;2023-11-19T04:57:12;98785.84;;;1.10;100.00
21902;BME280;11115;46.038;14.612;2023-11-19T04:59:40;98808.09;;;1.18;100.00
21902;BME280;11115;46.038;14.612;2023-11-19T05:02:09;98804.47;;;1.01;100.00
21902;BME280;11115;46.038;14.612;2023-11-19T05:04:37;98788.53;;;1.21;100.00
21902;BME280;11115;46.038;14.612;2023-11-19T05:07:05;98774.66;;;1.23;100.00
21902;BME280;11115;46.038;14.612;2023-11-19T05:09:34;98781.69;;;1.47;100.00
21902;BME280;11115;46.038;14.612;2023-11-19T05:12:01;98769.97;;;1.47;100.00
21902;BME280;11115;46.038;14.612;2023-11-19T05:14:30;98762.69;;;1.52;100.00
21902;BME280;11115;46.038;14.612;2023-11-19T05:16:57;98750.38;;;1.50;100.00
21902;BME280;11115;46.038;14.612;2023-11-19T05:19:26;98717.84;;;1.03;100.00
21902;BME280;11115;46.038;14.612;2023-11-19T05:21:54;98741.41;;;1.09;100.00
21902;BME280;11115;46.038;14.612;2023-11-19T05:24:22;98736.22;;;1.36;100.00
21902;BME280;11115;46.038;14.612;2023-11-19T05:26:51;98710.47;;;1.44;100.00
21902;BME280;11115;46.038;14.612;2023-11-19T05:29:19;98699.59;;;1.61;100.00
21902;BME280;11115;46.038;14.612;2023-11-19T05:31:47;98708.19;;;1.69;100.00
21902;BME280;11115;46.038;14.612;2023-11-19T05:34:15;98710.47;;;1.44;100.00
21902;BME280;11115;46.038;14.612;2023-11-19T05:36:43;98723.22;;;1.55;100.00
21902;BME280;11115;46.038;14.612;2023-11-19T05:39:11;98722.31;;;1.66;100.00
21902;BME280;11115;46.038;14.612;2023-11-19T05:41:39;98720.88;;;1.47;100.00
21902;BME280;11115;46.038;14.612;2023-11-19T05:44:08;98724.63;;;1.58;100.00
21902;BME280;11115;46.038;14.612;2023-11-19T05:46:35;98718.72;;;1.49;100.00
21902;BME280;11115;46.038;14.612;2023-11-19T05:49:09;98715.69;;;1.17;100.00
21902;BME280;11115;46.038;14.612;2023-11-19T05:51:40;98709.88;;;1.42;100.00
21902;BME280;11115;46.038;14.612;2023-11-19T05:54:09;98709.50;;;1.21;100.00
21902;BME280;11115;46.038;14.612;2023-11-19T05:56:37;98687.84;;;0.75;100.00
21902;BME280;11115;46.038;14.612;2023-11-19T05:59:06;98735.97;;;1.09;100.00
21902;BME280;11115;46.038;14.612;2023-11-19T06:01:42;98740.56;;;1.20;100.00
21902;BME280;11115;46.038;14.612;2023-11-19T06:04:10;98735.78;;;1.28;100.00
21902;BME280;11115;46.038;14.612;2023-11-19T06:06:38;98734.09;;;1.38;100.00
21902;BME280;11115;46.038;14.612;2023-11-19T06:09:07;98724.00;;;1.39;100.00
21902;BME280;11115;46.038;14.612;2023-11-19T06:11:40;98734.38;;;1.25;100.00
21902;BME280;11115;46.038;14.612;2023-11-19T06:14:08;98731.13;;;1.40;100.00
21902;BME280;11115;46.038;14.612;2023-11-19T06:16:36;98748.63;;;1.44;100.00
21902;BME280;11115;46.038;14.612;2023-11-19T06:19:06;98747.06;;;1.48;100.00
21902;BME280;11115;46.038;14.612;2023-11-19T06:21:36;98745.38;;;1.59;100.00
21902;BME280;11115;46.038;14.612;2023-11-19T06:24:04;98753.34;;;1.48;100.00
21902;BME280;11115;46.038;14.612;2023-11-19T06:26:32;98749.31;;;1.51;100.00
21902;BME280;11115;46.038;14.612;2023-11-19T06:29:00;98750.53;;;1.43;100.00
21902;BME280;11115;46.038;14.612;2023-11-19T06:31:28;98747.13;;;1.65;100.00
21902;BME280;11115;46.038;14.612;2023-11-19T06:33:56;98739.22;;;1.80;100.00
21902;BME280;11115;46.038;14.612;2023-11-19T06:36:24;98751.94;;;1.74;100.00
21902;BME280;11115;46.038;14.612;2023-11-19T06:38:53;98752.16;;;1.73;100.00
21902;BME280;11115;46.038;14.612;2023-11-19T06:41:22;98767.47;;;1.91;100.00
21902;BME280;11115;46.038;14.612;2023-11-19T06:43:50;98761.78;;;1.75;100.00
21902;BME280;11115;46.038;14.612;2023-11-19T06:46:18;98776.50;;;1.74;100.00
21902;BME280;11115;46.038;14.612;2023-11-19T06:48:47;98766.06;;;1.88;100.00
21902;BME280;11115;46.038;14.612;2023-11-19T06:51:15;98762.97;;;1.96;100.00
21902;BME280;11115;46.038;14.612;2023-11-19T06:53:43;98763.78;;;1.97;100.00
21902;BME280;11115;46.038;14.612;2023-11-19T06:56:22;98744.38;;;1.93;100.00
21902;BME280;11115;46.038;14.612;2023-11-19T06:58:51;98733.09;;;1.90;100.00
21902;BME280;11115;46.038;14.612;2023-11-19T07:01:19;98736.97;;;2.10;100.00
21902;BME280;11115;46.038;14.612;2023-11-19T07:03:48;98723.09;;;2.12;100.00
21902;BME280;11115;46.038;14.612;2023-11-19T07:06:16;98683.84;;;1.96;100.00
21902;BME280;11115;46.038;14.612;2023-11-19T07:08:44;98717.63;;;2.29;100.00
21902;BME280;11115;46.038;14.612;2023-11-19T07:11:13;98728.78;;;2.27;100.00
21902;BME280;11115;46.038;14.612;2023-11-19T07:13:43;98725.72;;;2.40;100.00
21902;BME280;11115;46.038;14.612;2023-11-19T07:16:14;98734.56;;;2.31;100.00
21902;BME280;11115;46.038;14.612;2023-11-19T07:18:42;98741.28;;;2.23;100.00
21902;BME280;11115;46.038;14.612;2023-11-19T07:21:11;98732.78;;;2.36;100.00
21902;BME280;11115;46.038;14.612;2023-11-19T07:23:39;98733.16;;;2.45;100.00
21902;BME280;11115;46.038;14.612;2023-11-19T07:26:08;98724.81;;;2.52;100.00
21902;BME280;11115;46.038;14.612;2023-11-19T07:28:37;98717.84;;;2.61;100.00
21902;BME280;11115;46.038;14.612;2023-11-19T07:31:06;98718.44;;;2.46;100.00
21902;BME280;11115;46.038;14.612;2023-11-19T07:33:35;98716.28;;;2.48;100.00
21902;BME280;11115;46.038;14.612;2023-11-19T07:36:04;98715.69;;;2.63;100.00
21902;BME280;11115;46.038;14.612;2023-11-19T07:38:32;98716.09;;;2.71;100.00
21902;BME280;11115;46.038;14.612;2023-11-19T07:41:00;98726.19;;;2.71;100.00
21902;BME280;11115;46.038;14.612;2023-11-19T07:43:28;98710.63;;;2.71;100.00
21902;BME280;11115;46.038;14.612;2023-11-19T07:45:56;98693.81;;;2.63;100.00
21902;BME280;11115;46.038;14.612;2023-11-19T07:48:25;98710.16;;;2.58;100.00
21902;BME280;11115;46.038;14.612;2023-11-19T07:50:53;98711.50;;;2.77;100.00
21902;BME280;11115;46.038;14.612;2023-11-19T07:53:21;98709.91;;;2.81;100.00
21902;BME280;11115;46.038;14.612;2023-11-19T07:55:49;98714.50;;;2.76;100.00
21902;BME280;11115;46.038;14.612;2023-11-19T07:58:17;98722.97;;;2.96;100.00
21902;BME280;11115;46.038;14.612;2023-11-19T08:00:45;98713.78;;;3.07;100.00
21902;BME280;11115;46.038;14.612;2023-11-19T08:03:13;98725.06;;;3.11;100.00
21902;BME280;11115;46.038;14.612;2023-11-19T08:05:41;98723.53;;;3.20;100.00
21902;BME280;11115;46.038;14.612;2023-11-19T08:08:09;98721.59;;;3.20;100.00
21902;BME280;11115;46.038;14.612;2023-11-19T08:10:38;98734.47;;;3.20;100.00
21902;BME280;11115;46.038;14.612;2023-11-19T08:13:06;98697.97;;;2.87;100.00
21902;BME280;11115;46.038;14.612;2023-11-19T08:15:35;98706.69;;;3.28;100.00
21902;BME280;11115;46.038;14.612;2023-11-19T08:18:03;98708.72;;;3.16;100.00
21902;BME280;11115;46.038;14.612;2023-11-19T08:20:32;98711.13;;;3.34;100.00
21902;BME280;11115;46.038;14.612;2023-11-19T08:23:02;98694.31;;;3.25;100.00
21902;BME280;11115;46.038;14.612;2023-11-19T08:25:32;98690.63;;;3.37;100.00
21902;BME280;11115;46.038;14.612;2023-11-19T08:28:01;98702.22;;;3.22;100.00
21902;BME280;11115;46.038;14.612;2023-11-19T08:30:30;98698.28;;;3.13;100.00
21902;BME280;11115;46.038;14.612;2023-11-19T08:32:58;98680.09;;;3.23;100.00
21902;BME280;11115;46.038;14.612;2023-11-19T08:35:29;98680.66;;;3.25;100.00
21902;BME280;11115;46.038;14.612;2023-11-19T08:37:57;98689.44;;;3.54;100.00
21902;BME280;11115;46.038;14.612;2023-11-19T08:40:27;98676.34;;;3.56;100.00
21902;BME280;11115;46.038;14.612;2023-11-19T08:42:56;98707.47;;;3.50;100.00
21902;BME280;11115;46.038;14.612;2023-11-19T08:45:24;98711.56;;;3.80;100.00
21902;BME280;11115;46.038;14.612;2023-11-19T08:47:52;98706.47;;;3.88;100.00
21902;BME280;11115;46.038;14.612;2023-11-19T08:50:21;98701.97;;;3.77;100.00
21902;BME280;11115;46.038;14.612;2023-11-19T08:52:49;98691.31;;;3.81;100.00
21902;BME280;11115;46.038;14.612;2023-11-19T08:55:17;98681.03;;;3.61;100.00
21902;BME280;11115;46.038;14.612;2023-11-19T08:57:45;98715.09;;;3.75;100.00
21902;BME280;11115;46.038;14.612;2023-11-19T09:00:13;98702.50;;;3.74;100.00
21902;BME280;11115;46.038;14.612;2023-11-19T09:02:41;98720.88;;;3.79;100.00
21902;BME280;11115;46.038;14.612;2023-11-19T09:05:11;98735.03;;;3.71;100.00
21902;BME280;11115;46.038;14.612;2023-11-19T09:07:39;98738.47;;;3.61;100.00
21902;BME280;11115;46.038;14.612;2023-11-19T09:10:08;98739.63;;;3.92;100.00
21902;BME280;11115;46.038;14.612;2023-11-19T09:12:37;98734.59;;;4.48;100.00
21902;BME280;11115;46.038;14.612;2023-11-19T09:15:05;98723.06;;;4.88;100.00
21902;BME280;11115;46.038;14.612;2023-11-19T09:17:34;98721.06;;;4.73;100.00
21902;BME280;11115;46.038;14.612;2023-11-19T09:20:02;98711.72;;;4.74;100.00
21902;BME280;11115;46.038;14.612;2023-11-19T09:22:30;98713.34;;;4.65;100.00
21902;BME280;11115;46.038;14.612;2023-11-19T09:24:58;98694.09;;;4.55;100.00
21902;BME280;11115;46.038;14.612;2023-11-19T09:27:27;98677.16;;;4.63;100.00
21902;BME280;11115;46.038;14.612;2023-11-19T09:29:55;98660.50;;;4.75;100.00
21902;BME280;11115;46.038;14.612;2023-11-19T09:32:25;98637.72;;;4.69;100.00
21902;BME280;11115;46.038;14.612;2023-11-19T09:34:53;98632.28;;;4.79;100.00
21902;BME280;11115;46.038;14.612;2023-11-19T09:37:21;98639.44;;;4.91;100.00
21902;BME280;11115;46.038;14.612;2023-11-19T09:39:49;98648.03;;;5.09;100.00
21902;BME280;11115;46.038;14.612;2023-11-19T09:42:17;98660.34;;;5.02;100.00
21902;BME280;11115;46.038;14.612;2023-11-19T09:44:47;98654.00;;;4.96;100.00
21902;BME280;11115;46.038;14.612;2023-11-19T09:47:16;98663.03;;;4.86;100.00
21902;BME280;11115;46.038;14.612;2023-11-19T09:49:45;98675.38;;;4.89;100.00
21902;BME280;11115;46.038;14.612;2023-11-19T09:52:14;98656.75;;;5.01;100.00
21902;BME280;11115;46.038;14.612;2023-11-19T09:54:42;98643.06;;;5.06;100.00
21902;BME280;11115;46.038;14.612;2023-11-19T09:57:11;98615.88;;;4.95;100.00
21902;BME280;11115;46.038;14.612;2023-11-19T09:59:42;98600.03;;;5.07;100.00
21902;BME280;11115;46.038;14.612;2023-11-19T10:02:10;98597.28;;;5.02;100.00
21902;BME280;11115;46.038;14.612;2023-11-19T10:04:41;98607.66;;;4.90;100.00
21902;BME280;11115;46.038;14.612;2023-11-19T10:07:10;98598.13;;;5.12;100.00
21902;BME280;11115;46.038;14.612;2023-11-19T10:09:38;98609.69;;;5.25;100.00
21902;BME280;11115;46.038;14.612;2023-11-19T10:12:06;98613.19;;;5.15;100.00
21902;BME280;11115;46.038;14.612;2023-11-19T10:14:36;98607.16;;;5.13;100.00
21902;BME280;11115;46.038;14.612;2023-11-19T10:17:07;98581.94;;;5.06;100.00
21902;BME280;11115;46.038;14.612;2023-11-19T10:19:35;98571.25;;;5.19;100.00
21902;BME280;11115;46.038;14.612;2023-11-19T10:22:05;98579.50;;;5.25;100.00
21902;BME280;11115;46.038;14.612;2023-11-19T10:24:34;98579.22;;;5.26;100.00
21902;BME280;11115;46.038;14.612;2023-11-19T10:27:09;98588.53;;;5.20;100.00
21902;BME280;11115;46.038;14.612;2023-11-19T10:29:37;98580.03;;;5.32;100.00
21902;BME280;11115;46.038;14.612;2023-11-19T10:32:05;98577.31;;;5.32;100.00
21902;BME280;11115;46.038;14.612;2023-11-19T10:34:56;98566.88;;;5.29;100.00
21902;BME280;11115;46.038;14.612;2023-11-19T10:37:32;98563.59;;;5.22;100.00
21902;BME280;11115;46.038;14.612;2023-11-19T10:40:03;98549.59;;;5.23;100.00
21902;BME280;11115;46.038;14.612;2023-11-19T10:42:32;98523.81;;;5.09;100.00
21902;BME280;11115;46.038;14.612;2023-11-19T10:45:00;98561.66;;;5.27;100.00
21902;BME280;11115;46.038;14.612;2023-11-19T10:47:29;98557.81;;;5.38;100.00
21902;BME280;11115;46.038;14.612;2023-11-19T10:50:01;98541.66;;;5.32;100.00
21902;BME280;11115;46.038;14.612;2023-11-19T10:52:29;98543.00;;;5.39;100.00
21902;BME280;11115;46.038;14.612;2023-11-19T10:55:00;98521.09;;;5.44;100.00
21902;BME280;11115;46.038;14.612;2023-11-19T10:57:30;98512.84;;;5.60;100.00
21902;BME280;11115;46.038;14.612;2023-11-19T11:00:01;98505.44;;;5.35;100.00
21902;BME280;11115;46.038;14.612;2023-11-19T11:02:35;98523.25;;;5.58;100.00
21902;BME280;11115;46.038;14.612;2023-11-19T11:05:05;98515.84;;;5.58;100.00
21902;BME280;11115;46.038;14.612;2023-11-19T11:07:34;98518.84;;;5.77;100.00
21902;BME280;11115;46.038;14.612;2023-11-19T11:10:08;98513.06;;;6.04;100.00
21902;BME280;11115;46.038;14.612;2023-11-19T11:12:40;98500.38;;;6.23;100.00
21902;BME280;11115;46.038;14.612;2023-11-19T11:15:11;98495.41;;;6.25;100.00
21902;BME280;11115;46.038;14.612;2023-11-19T11:17:41;98491.25;;;6.33;100.00
21902;BME280;11115;46.038;14.612;2023-11-19T11:20:10;98456.41;;;6.23;100.00
21902;BME280;11115;46.038;14.612;2023-11-19T11:25:49;98493.69;;;6.45;100.00
21902;BME280;11115;46.038;14.612;2023-11-19T11:28:52;98504.03;;;6.63;100.00
21902;BME280;11115;46.038;14.612;2023-11-19T11:31:38;98501.63;;;7.00;100.00
21902;BME280;11115;46.038;14.612;2023-11-19T11:34:47;98501.22;;;7.51;100.00
21902;BME280;11115;46.038;14.612;2023-11-19T11:40:05;98479.28;;;7.75;100.00
21902;BME280;11115;46.038;14.612;2023-11-19T11:42:37;98470.56;;;7.92;100.00
21902;BME280;11115;46.038;14.612;2023-11-19T11:45:10;98478.94;;;8.06;100.00
21902;BME280;11115;46.038;14.612;2023-11-19T11:50:19;98459.41;;;7.78;100.00
21902;BME280;11115;46.038;14.612;2023-11-19T11:58:03;98441.81;;;8.22;100.00
21902;BME280;11115;46.038;14.612;2023-11-19T12:00:32;98449.78;;;8.47;100.00
21902;BME280;11115;46.038;14.612;2023-11-19T12:03:00;98434.00;;;8.53;100.00
21902;BME280;11115;46.038;14.612;2023-11-19T12:05:29;98436.78;;;8.72;100.00
21902;BME280;11115;46.038;14.612;2023-11-19T12:08:04;98424.03;;;8.76;100.00
21902;BME280;11115;46.038;14.612;2023-11-19T12:10:45;98434.53;;;9.11;100.00
21902;BME280;11115;46.038;14.612;2023-11-19T12:13:15;98445.25;;;9.13;100.00
21902;BME280;11115;46.038;14.612;2023-11-19T12:18:34;98417.97;;;9.11;100.00
21902;BME280;11115;46.038;14.612;2023-11-19T12:21:03;98438.94;;;9.45;100.00
21902;BME280;11115;46.038;14.612;2023-11-19T12:23:32;98451.50;;;10.11;100.00
21902;BME280;11115;46.038;14.612;2023-11-19T12:26:00;98445.50;;;10.23;100.00
21902;BME280;11115;46.038;14.612;2023-11-19T12:28:30;98440.78;;;10.37;100.00
21902;BME280;11115;46.038;14.612;2023-11-19T12:31:08;98436.69;;;10.48;100.00
21902;BME280;11115;46.038;14.612;2023-11-19T12:33:37;98427.53;;;9.93;100.00
21902;BME280;11115;46.038;14.612;2023-11-19T12:36:06;98418.84;;;9.86;100.00
21902;BME280;11115;46.038;14.612;2023-11-19T12:38:35;98420.88;;;9.80;100.00
21902;BME280;11115;46.038;14.612;2023-11-19T12:41:08;98387.13;;;9.69;100.00
21902;BME280;11115;46.038;14.612;2023-11-19T12:43:39;98405.84;;;9.86;100.00
21902;BME280;11115;46.038;14.612;2023-11-19T12:46:22;98394.72;;;10.05;100.00
21902;BME280;11115;46.038;14.612;2023-11-19T12:48:51;98401.16;;;10.28;100.00
21902;BME280;11115;46.038;14.612;2023-11-19T12:51:20;98401.47;;;10.26;100.00
21902;BME280;11115;46.038;14.612;2023-11-19T12:56:17;98410.31;;;10.64;100.00
21902;BME280;11115;46.038;14.612;2023-11-19T12:58:45;98396.03;;;10.71;100.00
21902;BME280;11115;46.038;14.612;2023-11-19T13:01:20;98388.72;;;11.11;100.00
21902;BME280;11115;46.038;14.612;2023-11-19T13:03:48;98389.13;;;11.18;100.00
21902;BME280;11115;46.038;14.612;2023-11-19T13:06:18;98360.09;;;11.16;100.00
21902;BME280;11115;46.038;14.612;2023-11-19T13:08:49;98380.47;;;10.98;100.00
21902;BME280;11115;46.038;14.612;2023-11-19T13:11:35;98348.13;;;11.29;100.00
21902;BME280;11115;46.038;14.612;2023-11-19T13:14:05;98378.56;;;11.82;100.00
21902;BME280;11115;46.038;14.612;2023-11-19T13:16:36;98379.69;;;12.21;100.00
21902;BME280;11115;46.038;14.612;2023-11-19T13:19:05;98378.59;;;11.91;100.00
21902;BME280;11115;46.038;14.612;2023-11-19T13:21:35;98370.50;;;12.03;100.00